Time;durP1;ratioP1;P1;durP2;ratioP2;P2;SDS_P1;SDS_P2;PMS_P1;PMS_P2;Temp;Humidity;BMP_temperature;BMP_pressure;BME280_temperature;BME280_humidity;BME280_pressure;Samples;Min_cycle;Max_cycle;Signal;HPM_P1;HPM_P2
2022/04/21 00:00:19;;;;;;;27.92;14.23;;;3.10;93.20;;;;;;5035288;28;20044;-89
2022/04/21 00:02:44;;;;;;;31.88;13.23;;;3.10;93.00;;;;;;5040771;28;20025;-89
2022/04/21 00:05:11;;;;;;;25.05;12.45;;;3.00;93.00;;;;;;5045712;28;20040;-89
2022/04/21 00:07:37;;;;;;;25.90;13.05;;;2.90;93.20;;;;;;5046757;28;20096;-89
2022/04/21 00:10:08;;;;;;;28.33;13.52;;;2.90;93.10;;;;;;5066968;28;20029;-88
2022/04/21 00:12:34;;;;;;;22.15;12.00;;;2.80;93.40;;;;;;5036616;28;20040;-90
2022/04/21 00:15:01;;;;;;;23.52;11.07;;;2.70;93.80;;;;;;5016970;28;20560;-88
2022/04/21 00:17:27;;;;;;;27.33;11.40;;;2.60;94.00;;;;;;5038866;28;20108;-90
2022/04/21 00:19:52;;;;;;;27.65;14.23;;;2.70;94.30;;;;;;5033360;28;20568;-89
2022/04/21 00:25:03;;;;;;;26.70;12.77;;;2.60;95.70;;;;;;5028977;28;20066;-89
2022/04/21 00:27:29;;;;;;;31.02;15.30;;;2.60;95.70;;;;;;5040040;28;20061;-89
2022/04/21 00:29:56;;;;;;;30.23;13.07;;;2.50;95.80;;;;;;5041310;28;20132;-88
2022/04/21 00:32:22;;;;;;;27.15;12.30;;;2.50;96.70;;;;;;5048791;28;20053;-89
2022/04/21 00:34:47;;;;;;;25.33;10.93;;;2.40;96.80;;;;;;5032029;28;20044;-90
2022/04/21 00:37:14;;;;;;;23.88;11.45;;;2.40;97.00;;;;;;5048286;28;20033;-90
2022/04/21 00:39:40;;;;;;;23.30;11.90;;;2.40;96.30;;;;;;5049247;28;20499;-88
2022/04/21 00:42:07;;;;;;;27.80;13.30;;;2.30;96.60;;;;;;5047778;28;20033;-89
2022/04/21 00:44:34;;;;;;;26.85;12.93;;;2.30;96.70;;;;;;5046488;28;20025;-88
2022/04/21 00:47:03;;;;;;;21.95;10.32;;;2.40;96.60;;;;;;5062300;28;20024;-89
2022/04/21 00:49:30;;;;;;;28.48;12.65;;;2.40;96.60;;;;;;5047452;28;20028;-89
2022/04/21 00:51:58;;;;;;;26.63;11.32;;;2.40;96.40;;;;;;5048663;28;20076;-88
2022/04/21 00:54:24;;;;;;;25.83;11.07;;;2.30;97.10;;;;;;5048054;28;20029;-88
2022/04/21 00:56:50;;;;;;;26.45;12.68;;;2.30;96.20;;;;;;5043166;28;20530;-89
2022/04/21 00:59:16;;;;;;;20.88;9.57;;;2.30;97.50;;;;;;5045662;28;20565;-88
2022/04/21 01:04:28;;;;;;;20.52;11.23;;;2.40;96.60;;;;;;5048419;28;20442;-88
2022/04/21 01:06:55;;;;;;;27.17;11.18;;;2.40;97.10;;;;;;5048738;28;20103;-88
2022/04/21 01:09:21;;;;;;;33.28;13.95;;;2.30;96.60;;;;;;5034915;28;20029;-88
2022/04/21 01:11:49;;;;;;;26.83;13.45;;;2.40;96.50;;;;;;5066412;28;20040;-88
2022/04/21 01:14:15;;;;;;;28.67;12.45;;;2.30;96.80;;;;;;5034652;28;20094;-88
2022/04/21 01:16:41;;;;;;;25.33;12.95;;;2.30;96.90;;;;;;5052355;28;20546;-87
2022/04/21 01:19:06;;;;;;;31.35;14.68;;;2.20;98.60;;;;;;5036279;28;20167;-90
2022/04/21 01:21:32;;;;;;;20.05;11.35;;;2.10;98.30;;;;;;5052674;28;20033;-89
2022/04/21 01:23:58;;;;;;;27.08;11.80;;;2.10;98.70;;;;;;5052555;28;20029;-88
2022/04/21 01:26:28;;;;;;;28.92;12.80;;;2.20;97.40;;;;;;5035997;28;20029;-89
2022/04/21 01:28:55;;;;;;;28.73;11.15;;;2.30;97.30;;;;;;5050754;28;20048;-90
2022/04/21 01:31:24;;;;;;;22.13;10.80;;;2.30;97.30;;;;;;5050284;28;20041;-88
2022/04/21 01:33:50;;;;;;;26.40;13.32;;;2.20;97.30;;;;;;5050786;28;20427;-90
2022/04/21 01:36:15;;;;;;;26.13;11.18;;;2.10;97.80;;;;;;5035543;28;20488;-90
2022/04/21 01:41:25;;;;;;;24.02;11.07;;;2.10;98.50;;;;;;5054601;28;20044;-89
2022/04/21 01:43:51;;;;;;;22.98;11.20;;;2.20;97.70;;;;;;5053895;28;20025;-89
2022/04/21 01:46:16;;;;;;;26.15;10.95;;;2.30;97.40;;;;;;5034313;28;20064;-87
2022/04/21 01:48:42;;;;;;;22.08;10.82;;;2.30;97.10;;;;;;5052732;28;20079;-88
2022/04/21 01:51:08;;;;;;;40.17;12.35;;;2.30;97.50;;;;;;5048121;28;20506;-89
2022/04/21 01:53:34;;;;;;;26.95;12.98;;;2.20;98.10;;;;;;5046885;28;20082;-89
2022/04/21 01:56:00;;;;;;;27.45;12.82;;;2.00;98.50;;;;;;5050588;28;20478;-88
2022/04/21 01:58:26;;;;;;;23.85;11.50;;;1.90;99.20;;;;;;5052503;28;20033;-89
2022/04/21 02:00:51;;;;;;;29.55;12.27;;;2.00;99.40;;;;;;5049557;28;20404;-88
2022/04/21 02:03:18;;;;;;;23.50;12.40;;;2.00;99.10;;;;;;5051384;28;20048;-88
2022/04/21 02:05:44;;;;;;;31.38;13.32;;;1.90;99.90;;;;;;5049307;28;20029;-88
2022/04/21 02:08:09;;;;;;;27.20;11.20;;;1.80;99.90;;;;;;5034524;28;20506;-90
2022/04/21 02:10:35;;;;;;;24.27;12.43;;;1.70;99.90;;;;;;5050884;28;20435;-88
2022/04/21 02:13:01;;;;;;;22.67;11.07;;;1.70;99.90;;;;;;5048158;28;20373;-87
2022/04/21 02:15:27;;;;;;;32.05;13.35;;;1.70;99.90;;;;;;5050301;28;20074;-88
2022/04/21 02:17:53;;;;;;;33.00;12.95;;;1.70;99.90;;;;;;5033142;28;20509;-88
2022/04/21 02:20:19;;;;;;;25.00;12.35;;;1.60;99.90;;;;;;5049994;28;20781;-88
2022/04/21 02:22:45;;;;;;;25.45;12.35;;;1.80;99.90;;;;;;5033460;28;20488;-88
2022/04/21 02:25:13;;;;;;;26.60;12.02;;;1.70;99.90;;;;;;5049945;28;20029;-88
2022/04/21 02:27:44;;;;;;;22.50;11.35;;;1.80;99.90;;;;;;5051181;28;20024;-88
2022/04/21 02:30:10;;;;;;;;;;;1.90;99.90;;;;;;5046446;28;20033;-89
2022/04/21 02:32:36;;;;;;;29.05;11.95;;;2.00;99.90;;;;;;5049578;28;19966;-88
2022/04/21 02:35:02;;;;;;;33.20;15.23;;;1.90;99.80;;;;;;5047256;28;20033;-88
2022/04/21 02:37:28;;;;;;;31.38;11.32;;;2.10;99.30;;;;;;5065135;28;20120;-88
2022/04/21 02:39:54;;;;;;;26.33;11.32;;;2.10;99.60;;;;;;5048911;28;20055;-89
2022/04/21 02:42:20;;;;;;;26.08;12.70;;;2.10;99.80;;;;;;5049290;28;20464;-89
2022/04/21 02:44:47;;;;;;;30.65;11.30;;;1.80;99.90;;;;;;5048540;28;20061;-86
2022/04/21 02:47:14;;;;;;;25.00;11.18;;;1.80;99.90;;;;;;5050617;28;20029;-89
2022/04/21 02:49:45;;;;;;;24.08;10.82;;;1.70;99.90;;;;;;5049274;28;20551;-89
2022/04/21 02:52:11;;;;;;;31.98;12.63;;;1.50;99.90;;;;;;5028594;28;20033;-90
2022/04/21 02:57:22;;;;;;;28.23;13.55;;;1.80;99.90;;;;;;5041750;28;20078;-90
2022/04/21 02:59:53;;;;;;;28.60;13.98;;;1.70;99.90;;;;;;5047631;28;20500;-90
2022/04/21 03:02:19;;;;;;;;;;;1.70;99.90;;;;;;5066105;28;20040;-90
2022/04/21 03:04:45;;;;;;;25.35;10.73;;;1.60;99.90;;;;;;5049288;28;19912;-87
2022/04/21 03:07:13;;;;;;;24.45;11.25;;;1.50;99.90;;;;;;5050368;28;20027;-89
2022/04/21 03:09:40;;;;;;;23.92;11.55;;;1.50;99.90;;;;;;5033086;28;20099;-87
2022/04/21 03:12:08;;;;;;;24.65;11.10;;;1.50;99.90;;;;;;5049027;28;20514;-89
2022/04/21 03:14:36;;;;;;;29.33;11.82;;;1.40;99.90;;;;;;5048870;28;20480;-87
2022/04/21 03:17:02;;;;;;;21.27;10.98;;;1.40;99.90;;;;;;5046391;28;20041;-87
2022/04/21 03:19:28;;;;;;;24.40;12.23;;;1.50;99.90;;;;;;5050015;28;20064;-87
2022/04/21 03:24:38;;;;;;;21.08;11.20;;;1.40;99.90;;;;;;5049456;28;20581;-89
2022/04/21 03:27:04;;;;;;;28.02;11.52;;;1.20;99.90;;;;;;5042996;28;20036;-90
2022/04/21 03:29:30;;;;;;;24.38;12.02;;;1.10;99.90;;;;;;5048469;28;20119;-87
2022/04/21 03:31:55;;;;;;;27.55;12.25;;;1.10;99.90;;;;;;5048331;28;20128;-88
2022/04/21 03:34:21;;;;;;;32.20;13.40;;;1.20;99.90;;;;;;5050092;28;20040;-87
2022/04/21 03:36:48;;;;;;;27.90;11.32;;;1.20;99.90;;;;;;5050052;28;20029;-89
2022/04/21 03:39:21;;;;;;;23.65;11.68;;;1.20;99.90;;;;;;5050843;28;20052;-89
2022/04/21 03:41:49;;;;;;;25.40;11.57;;;1.10;99.90;;;;;;5031593;28;20060;-88
2022/04/21 03:44:15;;;;;;;22.35;10.50;;;1.10;99.90;;;;;;5046681;28;20421;-89
2022/04/21 03:46:41;;;;;;;29.00;11.95;;;1.10;99.90;;;;;;5032614;28;20092;-91
2022/04/21 03:49:07;;;;;;;25.88;10.98;;;1.00;99.90;;;;;;5044814;28;20025;-88
2022/04/21 03:51:33;;;;;;;27.15;11.20;;;0.90;99.90;;;;;;5073245;28;20005;-89
2022/04/21 03:53:59;;;;;;;29.40;14.30;;;0.90;99.90;;;;;;5073354;28;20039;-88
2022/04/21 03:56:26;;;;;;;24.42;10.98;;;1.00;99.90;;;;;;5038143;28;20032;-89
2022/04/21 03:58:52;;;;;;;28.83;11.90;;;1.10;99.90;;;;;;5037226;28;20033;-89
2022/04/21 04:01:19;;;;;;;31.77;13.40;;;1.00;99.90;;;;;;5053250;28;20503;-88
2022/04/21 04:03:45;;;;;;;24.65;10.93;;;1.10;99.90;;;;;;5051358;28;20025;-89
2022/04/21 04:11:42;;;;;;;25.73;11.82;;;1.00;99.90;;;;;;5045043;28;20120;-88
2022/04/21 04:14:08;;;;;;;34.47;13.18;;;1.00;99.90;;;;;;5044685;28;20058;-90
2022/04/21 04:16:35;;;;;;;22.38;11.93;;;1.00;99.90;;;;;;5034629;28;20536;-87
2022/04/21 04:19:03;;;;;;;31.33;12.63;;;0.90;99.90;;;;;;5024897;28;20078;-90
2022/04/21 04:21:30;;;;;;;29.02;12.40;;;0.80;99.90;;;;;;5039820;28;20033;-87
2022/04/21 04:23:56;;;;;;;25.13;12.25;;;0.90;99.90;;;;;;5047145;28;20033;-87
2022/04/21 04:26:21;;;;;;;27.23;12.85;;;1.10;99.90;;;;;;5048026;28;20396;-89
2022/04/21 04:28:49;;;;;;;24.15;11.30;;;1.20;99.90;;;;;;5043991;28;20419;-89
2022/04/21 04:31:14;;;;;;;29.58;12.63;;;1.40;99.90;;;;;;5047889;28;20043;-88
2022/04/21 04:33:40;;;;;;;24.73;10.60;;;1.30;99.90;;;;;;5049651;28;20025;-89
2022/04/21 04:36:06;;;;;;;26.40;11.00;;;1.30;99.90;;;;;;5046487;28;20037;-89
2022/04/21 04:38:31;;;;;;;28.60;12.57;;;1.30;99.90;;;;;;5050111;28;20079;-87
2022/04/21 04:42:16;;;;;;;21.27;11.13;;;1.30;99.90;;;;;;5046987;28;20037;-89
2022/04/21 04:43:42;;;;;;;27.88;12.20;;;1.40;99.90;;;;;;5036231;28;20028;-87
2022/04/21 04:48:52;;;;;;;27.00;11.95;;;1.50;99.90;;;;;;5047142;28;20095;-89
2022/04/21 04:51:18;;;;;;;24.60;13.25;;;1.50;99.90;;;;;;5047985;28;20037;-89
2022/04/21 04:53:43;;;;;;;27.45;11.45;;;1.60;99.90;;;;;;5040269;28;20055;-87
2022/04/21 04:56:09;;;;;;;23.98;12.30;;;1.70;99.90;;;;;;5035827;28;20029;-87
2022/04/21 04:58:35;;;;;;;25.23;14.77;;;1.80;99.90;;;;;;5022880;28;20055;-88
2022/04/21 05:01:02;;;;;;;36.30;13.80;;;1.80;99.90;;;;;;5038398;28;20041;-88
2022/04/21 05:03:28;;;;;;;30.38;14.60;;;1.90;99.90;;;;;;5043419;28;20034;-87
2022/04/21 05:05:53;;;;;;;22.70;12.82;;;1.90;99.90;;;;;;5046802;28;20044;-87
2022/04/21 05:08:19;;;;;;;31.40;13.60;;;2.10;99.90;;;;;;5047802;28;20369;-87
2022/04/21 05:10:44;;;;;;;25.88;13.30;;;2.10;99.90;;;;;;5045418;28;20130;-88
2022/04/21 05:13:11;;;;;;;31.77;14.02;;;2.10;99.90;;;;;;5032027;28;20077;-88
2022/04/21 05:15:36;;;;;;;30.23;13.90;;;2.20;99.90;;;;;;5046651;28;20119;-89
2022/04/21 05:18:02;;;;;;;25.23;13.65;;;2.20;99.90;;;;;;5047689;28;20083;-89
2022/04/21 05:20:28;;;;;;;29.13;15.43;;;2.30;99.90;;;;;;5030920;28;20142;-90
2022/04/21 05:23:04;;;;;;;28.38;12.90;;;2.40;99.90;;;;;;5047067;28;20503;-89
2022/04/21 05:25:31;;;;;;;25.50;13.20;;;2.50;99.90;;;;;;5047948;28;20040;-89
2022/04/21 05:27:58;;;;;;;25.13;14.30;;;2.60;99.90;;;;;;5046536;28;20089;-89
2022/04/21 05:33:10;;;;;;;32.67;16.02;;;2.80;99.90;;;;;;5046725;28;20082;-88
2022/04/21 05:35:36;;;;;;;39.55;17.58;;;2.80;99.90;;;;;;5046988;28;20090;-88
2022/04/21 05:38:02;;;;;;;31.45;15.35;;;2.80;99.90;;;;;;5050204;28;20080;-88
2022/04/21 05:40:28;;;;;;;34.22;16.98;;;3.00;99.90;;;;;;5048804;28;20045;-88
2022/04/21 05:42:58;;;;;;;35.90;16.67;;;3.10;99.90;;;;;;5044965;28;20033;-88
2022/04/21 05:45:24;;;;;;;36.38;17.77;;;3.30;99.90;;;;;;5048433;28;20025;-89
2022/04/21 05:47:50;;;;;;;33.55;16.23;;;3.40;99.90;;;;;;5027715;28;20401;-91
2022/04/21 05:50:16;;;;;;;34.80;19.67;;;3.40;99.90;;;;;;5047182;28;20032;-89
2022/04/21 05:52:45;;;;;;;32.67;15.70;;;3.50;99.90;;;;;;5052541;28;20051;-89
2022/04/21 05:55:11;;;;;;;37.50;17.13;;;3.50;99.90;;;;;;5014040;28;20052;-87
2022/04/21 05:57:40;;;;;;;36.58;17.52;;;3.50;99.90;;;;;;5048957;28;20033;-88
2022/04/21 06:00:07;;;;;;;36.70;16.95;;;3.40;99.90;;;;;;5050316;28;20166;-90
2022/04/21 06:02:35;;;;;;;38.88;17.35;;;3.60;99.90;;;;;;5049157;28;20033;-88
2022/04/21 06:05:00;;;;;;;42.80;19.48;;;3.60;99.90;;;;;;5033539;28;20033;-88
2022/04/21 06:07:26;;;;;;;37.60;18.27;;;3.70;99.90;;;;;;5050579;28;20100;-87
2022/04/21 06:09:52;;;;;;;40.03;18.45;;;3.70;99.90;;;;;;5049206;28;20041;-88
2022/04/21 06:12:18;;;;;;;36.60;16.67;;;3.90;99.90;;;;;;5049805;28;20052;-89
2022/04/21 06:14:45;;;;;;;38.30;19.55;;;3.90;99.90;;;;;;5049358;28;20438;-88
2022/04/21 06:17:10;;;;;;;37.38;18.15;;;4.00;99.90;;;;;;5034963;28;20067;-87
2022/04/21 06:19:36;;;;;;;41.30;20.25;;;4.00;99.90;;;;;;5028125;28;20052;-88
2022/04/21 06:22:02;;;;;;;37.67;17.45;;;4.00;99.90;;;;;;5048651;28;20028;-88
2022/04/21 06:24:29;;;;;;;34.47;17.40;;;4.20;99.90;;;;;;5046995;28;20037;-89
2022/04/21 06:26:54;;;;;;;37.85;19.25;;;4.30;99.90;;;;;;5034547;28;20029;-88
2022/04/21 06:29:20;;;;;;;35.17;16.65;;;4.40;99.90;;;;;;5051192;28;20043;-89
2022/04/21 06:31:46;;;;;;;37.33;16.00;;;4.50;99.90;;;;;;5038192;28;20052;-89
2022/04/21 06:34:11;;;;;;;38.25;19.20;;;4.60;99.90;;;;;;5074040;28;20098;-90
2022/04/21 06:36:37;;;;;;;40.65;19.20;;;4.80;99.90;;;;;;5052153;28;20461;-88
2022/04/21 06:39:03;;;;;;;38.38;18.42;;;4.80;99.90;;;;;;5069866;28;20033;-87
2022/04/21 06:41:29;;;;;;;33.67;17.67;;;4.90;99.90;;;;;;5053356;28;20098;-88
2022/04/21 06:49:23;;;;;;;38.05;17.33;;;5.10;99.70;;;;;;5055356;28;20352;-89
2022/04/21 06:51:49;;;;;;;34.45;16.95;;;5.30;99.90;;;;;;5073841;28;20029;-89
2022/04/21 06:54:14;;;;;;;32.72;16.30;;;5.40;99.20;;;;;;5035244;28;20090;-90
2022/04/21 06:56:40;;;;;;;36.33;17.67;;;5.50;98.90;;;;;;5047872;28;20484;-88
2022/04/21 06:59:06;;;;;;;33.95;16.42;;;5.60;98.20;;;;;;5043988;28;20034;-91
2022/04/21 07:01:32;;;;;;;35.15;15.43;;;5.60;98.40;;;;;;5038824;28;20127;-90
2022/04/21 07:03:57;;;;;;;36.05;17.30;;;5.70;97.50;;;;;;5059371;28;20038;-90
2022/04/21 07:06:23;;;;;;;37.63;16.35;;;5.90;97.60;;;;;;5040123;28;20476;-91
2022/04/21 07:08:49;;;;;;;34.85;16.77;;;6.00;97.80;;;;;;5043026;28;20581;-88
2022/04/21 07:11:15;;;;;;;32.03;15.50;;;6.10;96.90;;;;;;5042381;28;20035;-90
2022/04/21 07:13:41;;;;;;;35.05;16.95;;;6.10;96.90;;;;;;5061506;28;20384;-90
2022/04/21 07:16:07;;;;;;;32.10;17.48;;;6.30;97.10;;;;;;5054753;28;20028;-87
2022/04/21 07:18:33;;;;;;;38.17;14.95;;;6.50;96.20;;;;;;5055722;28;20086;-89
2022/04/21 07:21:00;;;;;;;28.77;14.38;;;6.70;95.20;;;;;;5063196;28;20118;-86
2022/04/21 07:23:26;;;;;;;39.38;15.27;;;6.80;93.70;;;;;;5045875;28;20052;-85
2022/04/21 07:25:52;;;;;;;39.38;17.67;;;6.90;93.70;;;;;;5044110;28;20428;-87
2022/04/21 07:28:17;;;;;;;30.48;15.07;;;7.10;94.40;;;;;;5089661;28;20037;-86
2022/04/21 07:30:43;;;;;;;26.35;15.40;;;7.10;93.00;;;;;;5060032;28;20407;-86
2022/04/21 07:33:09;;;;;;;29.20;15.77;;;7.20;93.20;;;;;;5053124;28;20503;-87
2022/04/21 07:35:35;;;;;;;33.33;16.60;;;7.20;92.50;;;;;;5043680;28;20032;-86
2022/04/21 07:38:01;;;;;;;24.55;12.93;;;7.40;93.10;;;;;;5057555;28;20021;-87
2022/04/21 07:40:26;;;;;;;27.70;15.80;;;7.60;92.10;;;;;;5054733;28;20090;-87
2022/04/21 07:42:53;;;;;;;29.65;15.45;;;7.80;90.70;;;;;;5050817;28;20036;-87
2022/04/21 07:45:18;;;;;;;30.52;16.50;;;7.80;89.90;;;;;;5035719;28;20036;-88
2022/04/21 07:47:44;;;;;;;30.92;15.27;;;8.00;91.70;;;;;;5044409;28;20687;-87
2022/04/21 07:50:10;;;;;;;28.52;16.30;;;8.30;87.50;;;;;;5028170;28;20036;-86
2022/04/21 07:55:25;;;;;;;26.42;13.27;;;8.70;87.00;;;;;;5048481;28;20455;-84
2022/04/21 07:57:56;;;;;;;26.50;14.33;;;8.50;85.50;;;;;;5053943;28;20021;-84
2022/04/21 08:00:22;;;;;;;26.88;15.27;;;8.40;86.50;;;;;;5049536;28;20021;-88
2022/04/21 08:02:49;;;;;;;28.63;14.57;;;8.70;86.40;;;;;;5043057;28;20065;-85
2022/04/21 08:05:17;;;;;;;26.45;12.32;;;8.80;84.20;;;;;;5059409;28;20060;-86
2022/04/21 08:07:44;;;;;;;32.75;16.38;;;9.00;85.50;;;;;;5042068;28;20017;-85
2022/04/21 08:10:12;;;;;;;26.00;13.63;;;9.00;82.70;;;;;;5041253;28;20016;-86
2022/04/21 08:12:45;;;;;;;30.98;15.27;;;9.30;82.80;;;;;;5045306;28;20058;-84
2022/04/21 08:15:21;;;;;;;28.52;14.38;;;9.40;81.70;;;;;;5043810;28;20112;-91
2022/04/21 08:17:46;;;;;;;28.00;13.68;;;9.60;80.10;;;;;;5051026;28;20068;-92
2022/04/21 08:20:12;;;;;;;35.63;15.40;;;9.70;77.10;;;;;;5043020;28;20057;-93
2022/04/21 08:22:39;;;;;;;25.77;14.10;;;9.60;76.00;;;;;;5071480;28;20476;-85
2022/04/21 08:33:19;;;;;;;26.10;13.30;;;10.10;72.70;;;;;;5055178;28;20039;-82
2022/04/21 08:35:46;;;;;;;24.48;13.02;;;10.20;69.50;;;;;;5056376;28;20032;-84
2022/04/21 08:38:12;;;;;;;27.73;14.05;;;10.40;72.40;;;;;;5052836;28;20100;-84
2022/04/21 08:40:41;;;;;;;30.40;15.43;;;10.40;69.90;;;;;;5064992;28;20047;-84
2022/04/21 08:43:14;;;;;;;25.02;13.10;;;10.70;64.40;;;;;;5058555;28;20054;-85
2022/04/21 08:45:43;;;;;;;28.50;15.05;;;11.00;68.10;;;;;;5052039;28;20028;-83
2022/04/21 08:48:11;;;;;;;25.80;13.95;;;11.20;67.70;;;;;;5050748;28;20039;-84
2022/04/21 08:50:38;;;;;;;28.25;15.10;;;10.90;63.90;;;;;;5050609;28;20033;-84
2022/04/21 08:53:09;;;;;;;21.27;11.63;;;10.70;62.90;;;;;;5042159;28;20115;-85
2022/04/21 08:55:35;;;;;;;30.75;15.35;;;11.00;60.50;;;;;;5047548;28;20133;-83
2022/04/21 08:58:01;;;;;;;27.75;14.10;;;11.30;62.80;;;;;;5054659;28;20036;-84
2022/04/21 09:00:27;;;;;;;28.15;14.90;;;11.50;60.90;;;;;;5056951;28;20060;-84
2022/04/21 09:02:53;;;;;;;27.70;14.18;;;11.50;60.00;;;;;;5058133;28;20109;-83
2022/04/21 09:05:22;;;;;;;30.42;14.45;;;11.80;62.30;;;;;;5053144;28;20030;-84
2022/04/21 09:07:52;;;;;;;23.73;12.52;;;11.60;56.70;;;;;;5051664;28;20283;-84
2022/04/21 09:10:19;;;;;;;25.52;12.52;;;11.70;56.10;;;;;;5050837;28;20098;-83
2022/04/21 09:12:45;;;;;;;24.40;13.52;;;11.70;53.50;;;;;;5042777;28;20758;-83
2022/04/21 09:15:19;;;;;;;28.60;15.43;;;11.70;54.00;;;;;;5052323;28;20024;-86
2022/04/21 09:17:48;;;;;;;25.67;13.50;;;11.60;55.40;;;;;;5043528;28;20041;-83
2022/04/21 09:20:19;;;;;;;23.13;13.47;;;11.90;55.80;;;;;;5062471;28;20033;-84
2022/04/21 09:22:52;;;;;;;;;;;12.10;54.60;;;;;;5046123;28;20036;-88
2022/04/21 09:25:19;;;;;;;27.00;12.40;;;12.40;51.50;;;;;;5053870;28;19917;-84
2022/04/21 09:27:48;;;;;;;24.40;13.05;;;12.80;53.20;;;;;;5052557;28;20028;-84
2022/04/21 09:30:14;;;;;;;23.50;12.48;;;12.70;50.50;;;;;;5038745;28;20037;-83
2022/04/21 09:32:42;;;;;;;26.73;13.50;;;12.60;52.90;;;;;;5058032;28;20063;-92
2022/04/21 09:35:09;;;;;;;25.50;12.68;;;12.60;55.30;;;;;;5060938;28;20076;-88
2022/04/21 09:37:52;;;;;;;22.75;12.75;;;12.80;50.20;;;;;;5058404;28;20541;-89
2022/04/21 09:40:20;;;;;;;36.00;12.88;;;12.70;48.20;;;;;;5057999;28;20048;-93
2022/04/21 09:43:01;;;;;;;25.58;12.48;;;12.70;50.80;;;;;;5072873;28;20032;-88
2022/04/21 09:48:29;;;;;;;25.55;13.70;;;12.90;48.30;;;;;;5052587;28;20051;-88
2022/04/21 09:51:13;;;;;;;23.30;13.68;;;12.90;49.40;;;;;;5034433;28;20025;-89
2022/04/21 09:53:52;;;;;;;27.23;13.32;;;13.40;53.30;;;;;;5057173;28;20120;-87
2022/04/21 09:56:18;;;;;;;26.15;14.73;;;13.50;50.00;;;;;;5068806;28;20025;-87
2022/04/21 09:58:46;;;;;;;29.30;14.85;;;13.90;49.30;;;;;;5078385;28;20107;-90
2022/04/21 10:01:12;;;;;;;27.45;14.88;;;13.70;49.80;;;;;;5082987;28;20089;-93
2022/04/21 10:03:41;;;;;;;21.63;13.13;;;13.90;50.10;;;;;;5056588;28;20042;-88
2022/04/21 10:06:07;;;;;;;31.10;15.88;;;14.10;48.40;;;;;;5047536;28;20135;-91
2022/04/21 10:08:34;;;;;;;31.70;16.17;;;14.00;48.90;;;;;;5084774;28;20420;-88
2022/04/21 10:11:00;;;;;;;29.20;15.95;;;14.20;49.80;;;;;;5068546;28;20080;-88
2022/04/21 10:13:26;;;;;;;27.70;13.90;;;14.30;53.70;;;;;;5050459;28;20484;-88
2022/04/21 10:15:52;;;;;;;26.58;15.57;;;13.70;49.60;;;;;;5048959;28;20021;-88
2022/04/21 10:18:19;;;;;;;27.30;14.75;;;14.10;50.40;;;;;;5052182;28;20021;-88
2022/04/21 10:20:45;;;;;;;28.35;17.35;;;13.80;51.70;;;;;;5043932;28;20032;-89
2022/04/21 10:23:22;;;;;;;22.00;14.38;;;14.10;51.00;;;;;;5047390;28;20078;-90
2022/04/21 10:26:02;;;;;;;28.17;14.48;;;14.40;50.10;;;;;;5044073;28;20078;-87
2022/04/21 10:28:42;;;;;;;21.73;12.47;;;14.50;47.50;;;;;;5064613;28;20025;-88
2022/04/21 10:31:29;;;;;;;27.30;14.43;;;14.60;44.80;;;;;;5054979;28;20036;-88
2022/04/21 10:34:27;;;;;;;25.20;14.88;;;14.20;47.20;;;;;;5073658;28;20071;-87
2022/04/21 10:37:24;;;;;;;26.40;14.45;;;14.30;47.50;;;;;;5056860;28;20064;-89
2022/04/21 10:40:06;;;;;;;24.77;14.23;;;14.60;47.30;;;;;;5035071;28;20091;-95
2022/04/21 10:42:55;;;;;;;27.08;14.50;;;14.30;47.80;;;;;;5060465;28;20484;-95
2022/04/21 10:45:32;;;;;;;26.63;14.73;;;14.40;46.50;;;;;;5051864;28;20017;-95
2022/04/21 10:48:16;;;;;;;25.77;14.32;;;14.70;46.10;;;;;;5052474;28;20048;-91
2022/04/21 10:50:44;;;;;;;23.42;14.40;;;14.70;44.20;;;;;;5062218;28;20055;-91
2022/04/21 10:59:05;;;;;;;24.52;14.57;;;15.70;41.70;;;;;;5027244;28;20049;-90
2022/04/21 11:01:31;;;;;;;22.17;14.88;;;15.80;41.10;;;;;;5043306;28;20407;-91
2022/04/21 11:04:10;;;;;;;27.77;15.07;;;16.10;41.60;;;;;;5034068;28;20044;-92
2022/04/21 11:06:44;;;;;;;20.25;11.50;;;16.40;41.00;;;;;;5052532;28;20025;-88
2022/04/21 11:09:33;;;;;;;24.17;14.10;;;16.80;38.30;;;;;;5048142;28;20040;-87
2022/04/21 11:12:02;;;;;;;19.67;11.85;;;16.40;38.40;;;;;;5045862;28;20038;-92
2022/04/21 11:14:29;;;;;;;19.30;12.13;;;16.90;40.40;;;;;;5042951;28;20036;-84
2022/04/21 11:16:57;;;;;;;20.02;13.48;;;16.80;36.00;;;;;;5039721;28;20044;-86
2022/04/21 11:19:29;;;;;;;20.40;11.98;;;16.60;36.90;;;;;;5043301;28;20239;-86
2022/04/21 11:22:03;;;;;;;23.23;13.35;;;17.00;36.10;;;;;;5046522;28;20029;-85
2022/04/21 11:24:54;;;;;;;23.67;13.38;;;17.50;36.30;;;;;;5042419;28;20031;-85
2022/04/21 11:27:21;;;;;;;18.80;11.00;;;17.30;35.40;;;;;;5058419;28;20116;-86
2022/04/21 11:29:47;;;;;;;20.30;12.85;;;17.40;35.20;;;;;;5038834;28;20392;-86
2022/04/21 11:32:17;;;;;;;24.40;14.73;;;17.80;37.40;;;;;;5040060;28;20050;-86
2022/04/21 11:35:00;;;;;;;19.25;12.70;;;18.10;36.40;;;;;;5041783;28;20036;-86
2022/04/21 11:37:51;;;;;;;18.48;13.10;;;18.30;36.50;;;;;;5040828;28;20100;-86
2022/04/21 11:40:26;;;;;;;22.92;13.77;;;18.60;37.20;;;;;;5035080;28;20033;-89
2022/04/21 11:42:54;;;;;;;20.10;13.52;;;19.40;33.90;;;;;;5041438;28;20515;-87
2022/04/21 11:45:27;;;;;;;23.25;12.75;;;19.20;32.90;;;;;;5041263;28;20009;-91
2022/04/21 11:47:53;;;;;;;18.08;13.23;;;19.50;32.70;;;;;;5044258;28;20029;-88
2022/04/21 11:50:21;;;;;;;20.48;14.00;;;19.30;35.60;;;;;;5044112;28;20043;-88
2022/04/21 11:52:52;;;;;;;19.55;11.95;;;19.90;33.30;;;;;;5042879;28;20133;-88
2022/04/21 11:55:21;;;;;;;15.73;11.95;;;19.50;31.50;;;;;;5046262;28;20033;-88
2022/04/21 11:57:48;;;;;;;17.30;12.23;;;19.00;32.50;;;;;;5042935;28;20493;-90
2022/04/21 12:00:16;;;;;;;16.02;11.88;;;19.00;33.20;;;;;;5040436;28;20103;-87
2022/04/21 12:08:14;;;;;;;18.20;12.88;;;19.60;33.90;;;;;;5040815;28;20110;-86
2022/04/21 12:10:41;;;;;;;17.02;12.40;;;19.80;33.50;;;;;;5042318;28;20487;-86
2022/04/21 12:13:07;;;;;;;20.95;13.88;;;20.80;31.90;;;;;;5055806;28;20044;-86
2022/04/21 12:15:37;;;;;;;17.23;12.75;;;20.60;32.10;;;;;;5045633;28;20032;-86
2022/04/21 12:18:08;;;;;;;19.85;13.73;;;20.70;32.00;;;;;;5045215;28;20025;-87
2022/04/21 12:20:34;;;;;;;20.85;13.45;;;20.10;32.10;;;;;;5043074;28;20060;-86
2022/04/21 12:22:59;;;;;;;22.05;15.07;;;21.00;33.00;;;;;;5042724;28;20116;-87
2022/04/21 12:25:30;;;;;;;22.85;15.25;;;21.40;32.60;;;;;;5038450;28;20036;-85
2022/04/21 12:28:01;;;;;;;19.15;14.00;;;20.90;31.20;;;;;;5041206;28;20025;-84
2022/04/21 12:30:26;;;;;;;18.02;13.35;;;20.40;30.80;;;;;;5037177;28;20086;-83
2022/04/21 12:32:53;;;;;;;21.83;13.65;;;20.40;30.40;;;;;;5041241;28;20053;-82
2022/04/21 12:35:46;;;;;;;22.80;15.18;;;19.80;33.40;;;;;;5045822;28;20088;-90
2022/04/21 12:41:01;;;;;;;16.42;13.23;;;21.20;30.90;;;;;;5053524;28;20040;-83
2022/04/21 12:43:31;;;;;;;18.67;14.73;;;21.40;29.50;;;;;;5051759;28;20021;-84
2022/04/21 12:45:57;;;;;;;;;;;21.30;30.00;;;;;;5040233;28;20586;-85
2022/04/21 12:48:24;;;;;;;18.15;14.02;;;21.20;30.70;;;;;;5056220;28;19909;-81
2022/04/21 12:50:51;;;;;;;17.60;12.88;;;21.80;30.80;;;;;;5017695;28;20037;-82
2022/04/21 12:53:30;;;;;;;17.98;12.50;;;21.40;29.40;;;;;;5036345;28;20036;-81
2022/04/21 12:56:10;;;;;;;22.48;15.20;;;20.60;31.00;;;;;;5043784;28;20155;-82
2022/04/21 12:58:36;;;;;;;;;;;21.60;30.80;;;;;;5049800;28;20029;-83
2022/04/21 13:01:04;;;;;;;19.80;13.50;;;22.00;29.50;;;;;;5044367;28;20294;-82
2022/04/21 13:03:29;;;;;;;19.80;14.52;;;21.90;29.70;;;;;;5046589;28;20104;-86
2022/04/21 13:05:57;;;;;;;20.17;14.30;;;22.50;29.60;;;;;;5046004;28;20301;-82
2022/04/21 13:08:26;;;;;;;18.77;14.02;;;22.40;29.80;;;;;;5046578;28;20048;-82
2022/04/21 13:10:53;;;;;;;16.85;12.88;;;22.20;30.40;;;;;;5046863;28;20507;-83
2022/04/21 13:13:19;;;;;;;15.55;12.10;;;22.30;29.10;;;;;;5046793;28;20140;-83
2022/04/21 13:15:46;;;;;;;20.15;12.93;;;23.10;28.00;;;;;;5045484;28;20128;-85
2022/04/21 13:18:12;;;;;;;18.90;14.02;;;22.50;29.20;;;;;;5042867;28;20017;-82
2022/04/21 13:23:24;;;;;;;14.18;11.90;;;22.20;28.20;;;;;;5040858;28;20103;-83
2022/04/21 13:25:49;;;;;;;16.55;11.30;;;22.70;28.60;;;;;;5043809;28;20064;-80
2022/04/21 13:28:15;;;;;;;16.50;12.68;;;22.20;29.30;;;;;;5041955;28;20029;-80
2022/04/21 13:30:41;;;;;;;16.30;11.77;;;22.60;28.40;;;;;;5031447;28;20062;-82
2022/04/21 13:33:21;;;;;;;17.25;12.20;;;23.50;28.00;;;;;;5050142;28;20503;-82
2022/04/21 13:35:52;;;;;;;19.45;11.52;;;23.10;27.20;;;;;;5082624;28;20048;-82
2022/04/21 13:38:19;;;;;;;15.73;12.50;;;23.50;28.20;;;;;;5053324;28;20021;-83
2022/04/21 13:40:45;;;;;;;17.95;13.57;;;23.20;28.00;;;;;;5054459;28;20032;-82